createdAt,value
2022-11-15T00:01:17.952Z,12.17
2022-11-15T00:03:45.973Z,11.33
2022-11-15T00:06:13.807Z,14.87
2022-11-15T00:08:41.925Z,12.83
2022-11-15T00:11:13.038Z,12.63
2022-11-15T00:13:42.394Z,10.47
2022-11-15T00:16:11.479Z,10.83
2022-11-15T00:18:40.511Z,13.23
2022-11-15T00:21:10.148Z,11.10
2022-11-15T00:23:38.829Z,14.20
2022-11-15T00:26:06.961Z,8.67
2022-11-15T00:28:35.117Z,9.13
2022-11-15T00:31:05.478Z,10.70
2022-11-15T00:33:33.957Z,9.10
2022-11-15T00:36:03.363Z,11.57
2022-11-15T00:38:34.544Z,9.97
2022-11-15T00:41:07.915Z,10.37
2022-11-15T00:43:37.383Z,13.20
2022-11-15T00:46:06.822Z,12.07
2022-11-15T00:48:34.623Z,11.50
2022-11-15T00:51:02.423Z,8.93
2022-11-15T00:53:30.621Z,8.60
2022-11-15T00:55:58.627Z,9.93
2022-11-15T00:58:26.627Z,11.50
2022-11-15T01:00:54.510Z,9.80
2022-11-15T01:03:23.866Z,10.40
2022-11-15T01:05:51.618Z,10.80
2022-11-15T01:08:19.481Z,13.43
2022-11-15T01:10:47.479Z,11.13
2022-11-15T01:13:15.245Z,10.73
2022-11-15T01:15:44.295Z,10.07
2022-11-15T01:18:12.470Z,9.40
2022-11-15T01:20:43.803Z,14.90
2022-11-15T01:23:11.878Z,11.23
2022-11-15T01:25:39.725Z,9.03
2022-11-15T01:28:07.531Z,9.87
2022-11-15T01:30:35.414Z,10.07
2022-11-15T01:33:03.174Z,11.83
2022-11-15T01:35:30.951Z,10.57
2022-11-15T01:38:00.121Z,9.63
2022-11-15T01:40:28.253Z,10.83
2022-11-15T01:42:55.994Z,12.47
2022-11-15T01:45:23.795Z,13.87
2022-11-15T01:47:56.022Z,9.03
2022-11-15T01:50:29.301Z,10.73
2022-11-15T01:52:57.746Z,11.23
2022-11-15T01:55:30.222Z,11.27
2022-11-15T01:58:01.725Z,10.13
2022-11-15T02:00:31.201Z,9.23
2022-11-15T02:02:59.310Z,8.87
2022-11-15T02:05:27.611Z,10.20
2022-11-15T02:07:56.499Z,9.77
2022-11-15T02:10:26.856Z,11.13
2022-11-15T02:12:55.655Z,9.40
2022-11-15T02:15:25.506Z,8.87
2022-11-15T02:18:09.117Z,12.70
2022-11-15T02:21:00.955Z,9.40
2022-11-15T02:24:00.074Z,10.30
2022-11-15T02:26:57.490Z,8.53
2022-11-15T02:29:42.005Z,6.90
2022-11-15T02:32:20.794Z,7.57
2022-11-15T02:34:57.062Z,9.23
2022-11-15T02:37:32.992Z,11.77
2022-11-15T02:40:09.300Z,9.63
2022-11-15T02:43:04.358Z,8.47
2022-11-15T02:45:39.453Z,9.47
2022-11-15T02:48:11.324Z,8.23
2022-11-15T02:50:39.894Z,8.07
2022-11-15T02:53:07.790Z,12.00
2022-11-15T02:55:37.078Z,8.17
2022-11-15T02:58:25.511Z,13.90
2022-11-15T03:01:01.100Z,11.07
2022-11-15T03:03:48.422Z,9.90
2022-11-15T03:06:25.879Z,9.47
2022-11-15T03:09:04.453Z,10.37
2022-11-15T03:11:37.514Z,8.80
2022-11-15T03:14:14.576Z,8.80
2022-11-15T03:16:48.687Z,8.63
2022-11-15T03:19:25.945Z,8.27
2022-11-15T03:21:57.151Z,9.50
2022-11-15T03:24:27.108Z,10.10
2022-11-15T03:26:57.051Z,10.93
2022-11-15T03:29:29.637Z,9.30
2022-11-15T03:32:02.348Z,11.43
2022-11-15T03:34:37.313Z,10.30
2022-11-15T03:37:06.163Z,12.17
2022-11-15T03:39:34.588Z,9.73
2022-11-15T03:42:15.591Z,7.43
2022-11-15T03:44:51.785Z,10.23
2022-11-15T03:47:25.851Z,14.40
2022-11-15T03:50:00.786Z,10.70
2022-11-15T03:52:33.071Z,10.00
2022-11-15T03:55:03.247Z,9.57
2022-11-15T03:57:31.412Z,10.33
2022-11-15T03:59:59.301Z,12.70
2022-11-15T04:02:27.318Z,9.40
2022-11-15T04:04:56.624Z,9.97
2022-11-15T04:07:24.704Z,6.60
2022-11-15T04:10:04.835Z,7.43
2022-11-15T04:12:33.528Z,9.27
2022-11-15T04:15:09.106Z,8.47
2022-11-15T04:17:42.112Z,12.27
2022-11-15T04:20:34.420Z,7.27
2022-11-15T04:23:21.254Z,7.60
2022-11-15T04:25:52.193Z,7.77
2022-11-15T04:28:20.356Z,7.40
2022-11-15T04:30:48.342Z,11.00
2022-11-15T04:33:16.735Z,9.30
2022-11-15T04:36:05.999Z,5.70
2022-11-15T04:38:32.858Z,7.60
2022-11-15T04:41:00.944Z,11.43
2022-11-15T04:43:28.960Z,7.27
2022-11-15T04:45:57.007Z,7.77
2022-11-15T04:48:24.792Z,8.20
2022-11-15T04:50:53.917Z,5.80
2022-11-15T04:53:21.807Z,6.80
2022-11-15T04:55:49.831Z,9.30
2022-11-15T04:58:17.597Z,6.27
2022-11-15T05:00:45.447Z,6.97
2022-11-15T05:03:30.868Z,8.23
2022-11-15T05:06:01.292Z,5.73
2022-11-15T05:08:29.166Z,6.43
2022-11-15T05:10:57.298Z,7.30
2022-11-15T05:13:25.205Z,5.07
2022-11-15T05:15:52.983Z,7.23
2022-11-15T05:18:23.685Z,6.03
2022-11-15T05:20:51.852Z,6.90
2022-11-15T05:23:20.992Z,6.80
2022-11-15T05:25:48.798Z,6.27
2022-11-15T05:28:16.800Z,5.80
2022-11-15T05:30:45.101Z,6.90
2022-11-15T05:33:13.328Z,6.57
2022-11-15T05:35:43.776Z,5.40
2022-11-15T05:38:11.597Z,7.97
2022-11-15T05:40:40.963Z,7.23
2022-11-15T05:43:08.998Z,4.93
2022-11-15T05:45:37.938Z,6.53
2022-11-15T05:48:10.941Z,5.37
2022-11-15T05:50:40.697Z,8.00
2022-11-15T05:53:08.610Z,9.23
2022-11-15T05:55:36.673Z,7.40
2022-11-15T05:58:05.908Z,6.40
2022-11-15T06:00:34.029Z,5.97
2022-11-15T06:03:01.892Z,7.50
2022-11-15T06:05:29.796Z,8.93
2022-11-15T06:07:59.616Z,7.17
2022-11-15T06:10:27.897Z,7.03
2022-11-15T06:12:59.855Z,7.43
2022-11-15T06:15:29.763Z,8.43
2022-11-15T06:17:59.372Z,6.80
2022-11-15T06:20:28.120Z,7.40
2022-11-15T06:22:59.201Z,7.80
2022-11-15T06:25:27.885Z,8.67
2022-11-15T06:27:56.411Z,6.40
2022-11-15T06:30:25.390Z,8.17
2022-11-15T06:33:01.076Z,7.60
2022-11-15T06:35:28.999Z,9.50
2022-11-15T06:37:57.365Z,7.30
2022-11-15T06:40:25.468Z,7.47
2022-11-15T06:42:53.260Z,7.50
2022-11-15T06:45:21.116Z,6.90
2022-11-15T06:47:49.090Z,6.87
2022-11-15T06:50:18.405Z,6.20
2022-11-15T06:52:46.324Z,6.67
2022-11-15T06:55:14.413Z,7.90
2022-11-15T06:57:49.473Z,5.93
2022-11-15T07:00:18.900Z,5.20
2022-11-15T07:02:46.779Z,5.73
2022-11-15T07:05:15.711Z,5.43
2022-11-15T07:07:45.572Z,8.40
2022-11-15T07:10:13.513Z,5.20
2022-11-15T07:12:41.264Z,5.13
2022-11-15T07:15:10.958Z,6.33
2022-11-15T07:17:38.771Z,6.17
2022-11-15T07:20:07.693Z,5.63
2022-11-15T07:22:35.498Z,6.23
2022-11-15T07:25:05.424Z,5.20
2022-11-15T07:27:33.561Z,5.67
2022-11-15T07:30:01.741Z,5.00
2022-11-15T07:32:29.830Z,5.20
2022-11-15T07:34:57.761Z,5.57
2022-11-15T07:37:25.777Z,4.97
2022-11-15T07:39:53.580Z,4.77
2022-11-15T07:42:40.056Z,3.87
2022-11-15T07:45:08.619Z,4.27
2022-11-15T07:47:36.876Z,4.50
2022-11-15T07:50:05.136Z,5.07
2022-11-15T07:52:33.263Z,5.60
2022-11-15T07:55:01.247Z,7.40
2022-11-15T07:57:31.817Z,4.73
2022-11-15T07:59:59.900Z,3.93
2022-11-15T08:02:30.448Z,5.37
2022-11-15T08:04:58.801Z,7.17
2022-11-15T08:07:27.153Z,8.27
2022-11-15T08:09:56.267Z,3.30
2022-11-15T08:12:24.340Z,4.50
2022-11-15T08:14:53.756Z,2.90
2022-11-15T08:17:21.715Z,3.37
2022-11-15T08:19:49.550Z,2.20
2022-11-15T08:22:17.533Z,6.20
2022-11-15T08:24:46.397Z,4.57
2022-11-15T08:27:16.767Z,3.17
2022-11-15T08:29:45.796Z,8.57
2022-11-15T08:32:15.224Z,5.57
2022-11-15T08:34:43.431Z,6.63
2022-11-15T08:37:11.380Z,3.23
2022-11-15T08:39:39.663Z,3.70
2022-11-15T08:42:07.894Z,8.57
2022-11-15T08:44:35.918Z,8.17
2022-11-15T08:47:03.870Z,2.97
2022-11-15T08:49:33.057Z,3.40
2022-11-15T08:52:01.010Z,12.80
2022-11-15T08:54:28.931Z,4.57
2022-11-15T08:56:56.935Z,5.87
2022-11-15T08:59:24.952Z,2.93
2022-11-15T09:01:53.081Z,3.93
2022-11-15T09:04:21.359Z,2.20
2022-11-15T09:06:51.169Z,3.77
2022-11-15T09:09:19.133Z,5.33
2022-11-15T09:11:47.775Z,2.33
2022-11-15T09:14:16.768Z,1.77
2022-11-15T09:16:44.969Z,2.17
2022-11-15T09:19:12.767Z,3.57
2022-11-15T09:21:40.855Z,2.17
2022-11-15T09:24:10.757Z,3.37
2022-11-15T09:26:41.675Z,3.67
2022-11-15T09:29:09.813Z,2.83
2022-11-15T09:31:37.849Z,3.27
2022-11-15T09:34:05.681Z,3.20
2022-11-15T09:36:33.736Z,3.80
2022-11-15T09:39:02.156Z,3.00
2022-11-15T09:41:50.636Z,3.17
2022-11-15T09:44:40.977Z,4.20
2022-11-15T09:47:34.445Z,4.63
2022-11-15T09:50:04.174Z,5.03
2022-11-15T09:52:32.067Z,4.30
2022-11-15T09:54:59.978Z,4.23
2022-11-15T09:57:35.175Z,4.47
2022-11-15T10:00:43.977Z,4.17
2022-11-15T10:03:11.697Z,6.63
2022-11-15T10:05:42.843Z,4.33
2022-11-15T10:08:27.407Z,3.57
2022-11-15T10:11:30.559Z,2.70
2022-11-15T10:13:51.241Z,5.60
2022-11-15T10:16:43.767Z,3.10
2022-11-15T10:19:21.582Z,2.57
2022-11-15T10:22:01.361Z,2.97
2022-11-15T10:24:31.020Z,1.77
2022-11-15T10:26:59.492Z,3.20
2022-11-15T10:29:28.809Z,3.77
2022-11-15T10:31:56.650Z,1.77
2022-11-15T10:34:26.118Z,3.47
2022-11-15T10:36:58.253Z,2.03
2022-11-15T10:39:26.862Z,2.63
2022-11-15T10:41:54.860Z,2.60
2022-11-15T10:44:25.670Z,4.43
2022-11-15T10:47:39.877Z,6.03
2022-11-15T10:50:29.652Z,6.57
2022-11-15T10:52:58.019Z,7.30
2022-11-15T10:55:29.516Z,2.23
2022-11-15T10:58:04.011Z,3.30
2022-11-15T11:00:36.604Z,2.57
2022-11-15T11:03:11.658Z,3.67
2022-11-15T11:05:43.195Z,3.60
2022-11-15T11:08:26.145Z,5.03
2022-11-15T11:11:02.497Z,1.97
2022-11-15T11:13:32.880Z,1.70
2022-11-15T11:16:21.407Z,1.23
2022-11-15T11:18:58.672Z,4.27
2022-11-15T11:21:40.215Z,3.10
2022-11-15T11:24:17.097Z,1.10
2022-11-15T11:26:57.443Z,2.40
2022-11-15T11:29:40.051Z,4.57
2022-11-15T11:32:25.150Z,3.30
2022-11-15T11:35:01.202Z,3.30
2022-11-15T11:37:37.806Z,5.60
2022-11-15T11:40:18.350Z,6.73
2022-11-15T11:43:00.473Z,2.07
2022-11-15T11:45:50.261Z,3.13
2022-11-15T11:48:30.625Z,2.03
2022-11-15T11:51:06.848Z,2.30
2022-11-15T11:53:43.169Z,2.67
2022-11-15T11:56:21.763Z,4.30
2022-11-15T11:58:50.473Z,2.30
2022-11-15T12:01:24.213Z,3.70
2022-11-15T12:03:57.888Z,3.87
2022-11-15T12:06:33.482Z,3.03
2022-11-15T12:09:09.517Z,1.50
2022-11-15T12:11:46.036Z,1.87
2022-11-15T12:14:24.770Z,1.20
2022-11-15T12:16:53.407Z,3.90
2022-11-15T12:19:21.223Z,2.20
2022-11-15T12:21:52.425Z,2.50
2022-11-15T12:24:26.697Z,5.03
2022-11-15T12:27:01.533Z,1.47
2022-11-15T12:29:33.800Z,3.10
2022-11-15T12:32:04.642Z,1.90
2022-11-15T12:34:42.645Z,3.60
2022-11-15T12:37:36.267Z,2.47
2022-11-15T12:40:21.645Z,3.10
2022-11-15T12:43:27.649Z,1.87
2022-11-15T12:45:55.441Z,5.73
2022-11-15T12:48:49.698Z,1.70
2022-11-15T12:51:18.281Z,1.47
2022-11-15T12:53:46.318Z,4.80
2022-11-15T12:56:26.067Z,4.53
2022-11-15T12:58:57.758Z,8.97
2022-11-15T13:02:02.757Z,1.97
2022-11-15T13:04:32.991Z,2.43
2022-11-15T13:07:04.142Z,1.93
2022-11-15T13:09:57.177Z,4.53
2022-11-15T13:12:55.495Z,2.83
2022-11-15T13:15:43.299Z,2.97
2022-11-15T13:18:44.321Z,2.70
2022-11-15T13:21:41.453Z,1.50
2022-11-15T13:24:15.673Z,2.27
2022-11-15T13:26:44.256Z,1.43
2022-11-15T13:29:19.696Z,3.87
2022-11-15T13:31:48.496Z,2.30
2022-11-15T13:37:30.801Z,1.40
2022-11-15T13:40:18.575Z,3.50
2022-11-15T13:42:47.861Z,4.27
2022-11-15T13:45:19.565Z,5.43
2022-11-15T13:47:53.804Z,1.70
2022-11-15T13:50:26.960Z,6.93
2022-11-15T13:52:55.985Z,4.53
2022-11-15T13:55:25.599Z,2.63
2022-11-15T13:57:56.488Z,2.90
2022-11-15T14:00:39.662Z,5.30
2022-11-15T14:03:15.199Z,2.27
2022-11-15T14:05:43.205Z,4.70
2022-11-15T14:08:24.742Z,2.03
2022-11-15T14:11:08.387Z,3.50
2022-11-15T14:13:36.884Z,3.63
2022-11-15T14:16:23.195Z,4.93
2022-11-15T14:18:53.134Z,1.97
2022-11-15T14:21:22.326Z,2.83
2022-11-15T14:23:51.683Z,2.10
2022-11-15T14:26:31.828Z,5.80
2022-11-15T14:29:19.679Z,3.03
2022-11-15T14:31:49.219Z,3.77
2022-11-15T14:34:17.453Z,3.17
2022-11-15T14:36:45.204Z,5.13
2022-11-15T14:39:13.090Z,2.30
2022-11-15T14:41:40.996Z,1.77
2022-11-15T14:44:12.813Z,2.53
2022-11-15T14:46:40.655Z,1.67
2022-11-15T14:49:10.419Z,3.10
2022-11-15T14:51:38.634Z,2.37
2022-11-15T14:54:06.946Z,3.40
2022-11-15T14:56:34.879Z,2.77
2022-11-15T14:59:02.752Z,3.67
2022-11-15T15:01:30.653Z,4.30
2022-11-15T15:03:59.477Z,4.13
2022-11-15T15:06:28.961Z,4.20
2022-11-15T15:08:56.877Z,2.77
2022-11-15T15:11:26.993Z,4.77
2022-11-15T15:13:57.903Z,4.27
2022-11-15T15:16:25.985Z,5.73
2022-11-15T15:18:54.354Z,2.20
2022-11-15T15:21:24.200Z,4.50
2022-11-15T15:23:55.160Z,7.13
2022-11-15T15:26:23.550Z,5.23
2022-11-15T15:28:52.141Z,7.83
2022-11-15T15:31:20.688Z,8.30
2022-11-15T15:33:48.853Z,5.77
2022-11-15T15:36:20.058Z,6.30
2022-11-15T15:38:49.173Z,6.07
2022-11-15T15:41:19.276Z,4.63
2022-11-15T15:43:47.197Z,6.80
2022-11-15T15:46:17.695Z,4.27
2022-11-15T15:48:45.997Z,4.03
2022-11-15T15:51:19.912Z,4.33
2022-11-15T15:53:49.072Z,4.50
2022-11-15T15:56:18.253Z,4.57
2022-11-15T15:58:46.079Z,3.27
2022-11-15T16:01:14.469Z,4.13
2022-11-15T16:03:42.602Z,5.17
2022-11-15T16:06:36.305Z,5.30
2022-11-15T16:09:20.642Z,4.43
2022-11-15T16:11:50.255Z,5.10
2022-11-15T16:14:18.188Z,3.60
2022-11-15T16:16:46.054Z,4.50
2022-11-15T16:19:14.415Z,4.57
2022-11-15T16:21:42.470Z,7.20
2022-11-15T16:24:10.332Z,5.97
2022-11-15T16:26:39.287Z,5.00
2022-11-15T16:29:10.289Z,6.47
2022-11-15T16:31:38.506Z,3.37
2022-11-15T16:34:07.521Z,2.67
2022-11-15T16:36:36.688Z,2.90
2022-11-15T16:39:05.348Z,7.07
2022-11-15T16:41:33.377Z,5.80
2022-11-15T16:44:01.266Z,5.03
2022-11-15T16:46:30.553Z,5.10
2022-11-15T16:48:58.513Z,5.77
2022-11-15T16:51:26.716Z,2.93
2022-11-15T16:53:54.489Z,2.30
2022-11-15T16:56:26.862Z,2.77
2022-11-15T16:58:55.769Z,2.97
2022-11-15T17:01:25.639Z,2.83
2022-11-15T17:03:55.566Z,4.50
2022-11-15T17:06:24.509Z,2.97
2022-11-15T17:08:52.519Z,3.30
2022-11-15T17:11:22.739Z,3.40
2022-11-15T17:13:50.636Z,3.03
2022-11-15T17:16:19.813Z,4.63
2022-11-15T17:18:52.262Z,2.20
2022-11-15T17:21:23.116Z,5.40
2022-11-15T17:23:51.158Z,3.00
2022-11-15T17:26:39.272Z,4.33
2022-11-15T17:29:08.247Z,3.40
2022-11-15T17:31:37.596Z,2.93
2022-11-15T17:34:06.571Z,2.40
2022-11-15T17:36:36.533Z,2.60
2022-11-15T17:39:05.035Z,3.57
2022-11-15T17:41:33.136Z,2.93
2022-11-15T17:44:03.484Z,4.07
2022-11-15T17:46:32.191Z,3.27
2022-11-15T17:49:01.005Z,3.93
2022-11-15T17:51:29.198Z,6.47
2022-11-15T17:53:58.627Z,4.50
2022-11-15T17:56:27.805Z,2.50
2022-11-15T17:58:57.486Z,6.27
2022-11-15T18:01:27.477Z,3.50
2022-11-15T18:03:56.641Z,3.30
2022-11-15T18:06:25.938Z,5.33
2022-11-15T18:08:56.109Z,9.30
2022-11-15T18:11:27.795Z,3.90
2022-11-15T18:13:58.505Z,3.77
2022-11-15T18:16:28.404Z,3.60
2022-11-15T18:18:56.563Z,3.70
2022-11-15T18:21:26.603Z,4.47
2022-11-15T18:23:56.811Z,3.60
2022-11-15T18:26:28.606Z,3.10
2022-11-15T18:28:59.239Z,3.80
2022-11-15T18:31:28.698Z,2.70
2022-11-15T18:33:57.703Z,1.67
2022-11-15T18:36:27.416Z,3.77
2022-11-15T18:38:56.755Z,5.17
2022-11-15T18:41:29.750Z,2.37
2022-11-15T18:43:59.165Z,3.53
2022-11-15T18:46:28.897Z,3.53
2022-11-15T18:48:57.204Z,3.30
2022-11-15T18:51:27.227Z,3.07
2022-11-15T18:53:57.175Z,3.03
2022-11-15T18:56:28.430Z,3.40
2022-11-15T18:58:59.117Z,4.23
2022-11-15T19:01:29.121Z,3.83
2022-11-15T19:03:59.100Z,3.40
2022-11-15T19:06:30.266Z,5.30
2022-11-15T19:09:00.347Z,3.63
2022-11-15T19:11:32.465Z,5.30
2022-11-15T19:14:03.272Z,3.47
2022-11-15T19:16:33.185Z,3.27
2022-11-15T19:19:03.020Z,19.77
2022-11-15T19:21:32.070Z,3.97
2022-11-15T19:24:00.944Z,3.33
2022-11-15T19:26:30.915Z,10.60
2022-11-15T19:29:00.910Z,4.87
2022-11-15T19:31:30.421Z,6.40
2022-11-15T19:34:00.445Z,3.93
2022-11-15T19:36:32.634Z,4.97
2022-11-15T19:39:05.006Z,5.17
2022-11-15T19:41:34.371Z,6.63
2022-11-15T19:44:02.535Z,6.90
2022-11-15T19:46:30.476Z,4.37
2022-11-15T19:48:58.632Z,5.10
2022-11-15T19:51:29.311Z,5.63
2022-11-15T19:53:58.381Z,5.27
2022-11-15T19:56:26.587Z,5.70
2022-11-15T19:58:57.680Z,4.73
2022-11-15T20:01:27.663Z,6.23
2022-11-15T20:03:57.893Z,5.93
2022-11-15T20:06:28.132Z,4.30
2022-11-15T20:08:56.140Z,6.70
2022-11-15T20:11:25.843Z,4.00
2022-11-15T20:13:58.390Z,5.73
2022-11-15T20:16:26.965Z,3.97
2022-11-15T20:18:55.055Z,6.00
2022-11-15T20:21:23.408Z,7.07
2022-11-15T20:23:51.782Z,4.97
2022-11-15T20:26:20.506Z,5.90
2022-11-15T20:28:49.093Z,5.50
2022-11-15T20:31:19.966Z,5.50
2022-11-15T20:33:48.110Z,5.80
2022-11-15T20:36:17.071Z,3.83
2022-11-15T20:38:45.958Z,3.87
2022-11-15T20:41:14.463Z,4.47
2022-11-15T20:43:43.757Z,3.83
2022-11-15T20:46:12.728Z,5.83
2022-11-15T20:48:42.233Z,7.80
2022-11-15T20:51:14.444Z,3.50
2022-11-15T20:53:43.247Z,4.23
2022-11-15T20:56:13.467Z,4.30
2022-11-15T20:58:42.196Z,4.10
2022-11-15T21:01:14.711Z,4.10
2022-11-15T21:03:44.662Z,7.83
2022-11-15T21:06:12.969Z,4.40
2022-11-15T21:08:58.302Z,5.83
2022-11-15T21:11:44.550Z,5.07
2022-11-15T21:14:12.574Z,5.67
2022-11-15T21:16:40.460Z,5.50
2022-11-15T21:19:10.248Z,5.10
2022-11-15T21:21:38.798Z,4.30
2022-11-15T21:24:08.286Z,6.53
2022-11-15T21:26:37.432Z,5.13
2022-11-15T21:29:05.507Z,5.87
2022-11-15T21:31:33.747Z,5.30
2022-11-15T21:34:03.071Z,7.17
2022-11-15T21:36:32.303Z,4.93
2022-11-15T21:39:00.407Z,4.73
2022-11-15T21:41:28.271Z,6.17
2022-11-15T21:43:59.295Z,6.03
2022-11-15T21:46:27.470Z,4.23
2022-11-15T21:48:55.255Z,5.17
2022-11-15T21:51:23.860Z,4.60
2022-11-15T21:53:55.521Z,5.87
2022-11-15T21:56:23.530Z,6.43
2022-11-15T21:58:51.381Z,4.17
2022-11-15T22:01:36.922Z,5.60
2022-11-15T22:04:06.249Z,9.83
2022-11-15T22:06:34.295Z,6.27
2022-11-15T22:09:03.833Z,3.90
2022-11-15T22:11:31.863Z,5.13
2022-11-15T22:13:59.957Z,5.77
2022-11-15T22:16:27.892Z,8.10
2022-11-15T22:18:56.073Z,4.93
2022-11-15T22:21:24.241Z,5.03
2022-11-15T22:23:53.041Z,3.57
2022-11-15T22:26:23.962Z,5.23
2022-11-15T22:28:52.256Z,5.10
2022-11-15T22:31:20.680Z,4.37
2022-11-15T22:33:48.724Z,4.47
2022-11-15T22:36:16.869Z,5.73
2022-11-15T22:38:47.172Z,4.17
2022-11-15T22:41:15.218Z,4.67
2022-11-15T22:43:44.558Z,5.13
2022-11-15T22:46:12.598Z,4.23
2022-11-15T22:48:40.693Z,4.73
2022-11-15T22:51:09.681Z,7.33
2022-11-15T22:53:37.856Z,6.47
2022-11-15T22:56:07.924Z,4.60
2022-11-15T22:58:36.251Z,11.63
2022-11-15T23:01:07.337Z,5.30
2022-11-15T23:03:36.085Z,5.63
2022-11-15T23:06:06.648Z,4.70
2022-11-15T23:08:35.063Z,6.23
2022-11-15T23:11:21.294Z,8.60
2022-11-15T23:13:51.433Z,6.27
2022-11-15T23:16:25.844Z,7.70
2022-11-15T23:18:55.651Z,6.07
2022-11-15T23:21:42.577Z,7.40
2022-11-15T23:24:12.338Z,6.07
2022-11-15T23:26:41.986Z,6.70
2022-11-15T23:29:11.774Z,7.00
2022-11-15T23:32:01.948Z,5.53
2022-11-15T23:34:31.511Z,5.57
2022-11-15T23:37:00.148Z,6.77
2022-11-15T23:39:28.558Z,7.97
2022-11-15T23:41:57.322Z,9.80
2022-11-15T23:44:26.182Z,9.17
2022-11-15T23:46:56.212Z,12.67
2022-11-15T23:49:24.977Z,13.17
2022-11-15T23:51:53.239Z,11.27
2022-11-15T23:54:21.422Z,7.93
2022-11-15T23:56:49.715Z,7.50
2022-11-15T23:59:17.737Z,6.47
